createdAt,value
2023-05-01T00:01:40.971Z,96918.44
2023-05-01T00:04:08.139Z,96924.53
2023-05-01T00:06:35.297Z,96916.88
2023-05-01T00:09:02.722Z,96920.03
2023-05-01T00:11:29.760Z,96916.03
2023-05-01T00:13:56.758Z,96903.97
2023-05-01T00:16:23.857Z,96905.81
2023-05-01T00:18:51.084Z,96903.09
2023-05-01T00:21:18.050Z,96893.88
2023-05-01T00:23:45.058Z,96890.47
2023-05-01T00:26:12.163Z,96895.72
2023-05-01T00:28:42.352Z,96879.69
2023-05-01T00:31:09.298Z,96878.13
2023-05-01T00:33:36.397Z,96872.47
2023-05-01T00:36:03.519Z,96870.41
2023-05-01T00:38:30.559Z,96868.38
2023-05-01T00:40:57.636Z,96864.03
2023-05-01T00:43:24.620Z,96864.50
2023-05-01T00:45:51.763Z,96864.97
2023-05-01T00:48:18.861Z,96866.88
2023-05-01T00:50:45.875Z,96858.44
2023-05-01T00:53:12.962Z,96860.97
2023-05-01T00:55:40.893Z,96867.13
2023-05-01T00:58:07.881Z,96863.59
2023-05-01T01:00:35.245Z,96859.13
2023-05-01T01:03:02.581Z,96857.34
2023-05-01T01:05:29.827Z,96848.53
2023-05-01T01:08:06.498Z,96849.66
2023-05-01T01:10:52.288Z,96843.06
2023-05-01T01:13:26.780Z,96842.25
2023-05-01T01:16:10.340Z,96842.44
2023-05-01T01:18:45.054Z,96850.50
2023-05-01T01:21:39.765Z,96838.16
2023-05-01T01:24:41.732Z,96841.41
2023-05-01T01:27:27.662Z,96836.69
2023-05-01T01:30:31.491Z,96843.19
2023-05-01T01:33:07.562Z,96840.16
2023-05-01T01:35:34.586Z,96842.03
2023-05-01T01:38:06.959Z,96840.38
2023-05-01T01:40:37.385Z,96835.81
2023-05-01T01:43:08.032Z,96829.53
2023-05-01T01:45:41.365Z,96830.41
2023-05-01T01:48:18.135Z,96838.47
2023-05-01T01:50:46.059Z,96837.25
2023-05-01T01:53:17.437Z,96831.56
2023-05-01T01:55:45.752Z,96828.25
2023-05-01T01:58:12.754Z,96821.22
2023-05-01T02:00:41.357Z,96819.53
2023-05-01T02:03:08.584Z,96817.09
2023-05-01T02:05:35.986Z,96818.78
2023-05-01T02:08:03.672Z,96818.50
2023-05-01T02:10:30.847Z,96815.00
2023-05-01T02:12:58.189Z,96812.47
2023-05-01T02:15:25.447Z,96814.91
2023-05-01T02:17:52.717Z,96813.63
2023-05-01T02:20:19.957Z,96811.19
2023-05-01T02:22:47.478Z,96808.78
2023-05-01T02:25:16.816Z,96800.66
2023-05-01T02:27:55.784Z,96800.56
2023-05-01T02:30:22.853Z,96795.00
2023-05-01T02:32:49.856Z,96792.09
2023-05-01T02:35:17.966Z,96797.91
2023-05-01T02:37:45.268Z,96799.75
2023-05-01T02:40:16.929Z,96785.84
2023-05-01T02:42:44.784Z,96791.75
2023-05-01T02:45:19.242Z,96784.31
2023-05-01T02:47:47.719Z,96779.25
2023-05-01T02:50:15.245Z,96771.75
2023-05-01T02:52:44.310Z,96774.44
2023-05-01T02:55:39.259Z,96782.56
2023-05-01T02:58:06.351Z,96775.09
2023-05-01T03:00:33.532Z,96774.00
2023-05-01T03:03:00.707Z,96773.44
2023-05-01T03:05:27.729Z,96774.47
2023-05-01T03:07:55.040Z,96775.66
2023-05-01T03:10:22.410Z,96779.72
2023-05-01T03:12:49.456Z,96768.72
2023-05-01T03:15:16.635Z,96763.94
2023-05-01T03:17:43.724Z,96760.56
2023-05-01T03:20:11.259Z,96762.25
2023-05-01T03:22:39.234Z,96746.00
2023-05-01T03:25:07.701Z,96749.75
2023-05-01T03:27:34.866Z,96740.06
2023-05-01T03:30:01.906Z,96745.09
2023-05-01T03:32:32.331Z,96751.22
2023-05-01T03:34:59.496Z,96745.88
2023-05-01T03:37:26.656Z,96749.88
2023-05-01T03:39:54.389Z,96749.72
2023-05-01T03:42:41.899Z,96747.88
2023-05-01T03:45:17.454Z,96750.94
2023-05-01T03:47:44.520Z,96749.84
2023-05-01T03:50:11.541Z,96735.97
2023-05-01T03:52:41.403Z,96748.28
2023-05-01T03:55:09.682Z,96743.97
2023-05-01T03:57:43.627Z,96738.09
2023-05-01T04:00:12.073Z,96735.63
2023-05-01T04:02:46.697Z,96735.88
2023-05-01T04:05:21.682Z,96734.72
2023-05-01T04:07:53.705Z,96738.13
2023-05-01T04:10:20.990Z,96735.22
2023-05-01T04:12:56.624Z,96741.59
2023-05-01T04:15:23.778Z,96736.75
2023-05-01T04:17:51.158Z,96746.66
2023-05-01T04:20:19.591Z,96745.84
2023-05-01T04:22:47.288Z,96740.75
2023-05-01T04:25:14.339Z,96739.16
2023-05-01T04:27:41.591Z,96741.75
2023-05-01T04:30:09.534Z,96739.03
2023-05-01T04:32:36.819Z,96740.38
2023-05-01T04:35:04.828Z,96745.31
2023-05-01T04:37:32.332Z,96744.56
2023-05-01T04:39:59.467Z,96742.06
2023-05-01T04:42:31.634Z,96735.66
2023-05-01T04:45:01.768Z,96742.38
2023-05-01T04:47:29.107Z,96745.25
2023-05-01T04:49:56.313Z,96748.31
2023-05-01T04:52:23.646Z,96752.97
2023-05-01T04:54:55.294Z,96757.66
2023-05-01T04:57:24.185Z,96750.19
2023-05-01T04:59:51.530Z,96754.00
2023-05-01T05:02:18.591Z,96755.78
2023-05-01T05:04:46.116Z,96757.13
2023-05-01T05:07:13.553Z,96751.19
2023-05-01T05:09:59.373Z,96752.41
2023-05-01T05:12:26.591Z,96754.13
2023-05-01T05:14:53.720Z,96755.44
2023-05-01T05:17:21.127Z,96762.44
2023-05-01T05:19:48.343Z,96755.63
2023-05-01T05:22:15.805Z,96753.63
2023-05-01T05:25:04.537Z,96752.31
2023-05-01T05:27:36.520Z,96753.81
2023-05-01T05:30:07.407Z,96753.47
2023-05-01T05:32:35.716Z,96746.97
2023-05-01T05:35:03.536Z,96751.47
2023-05-01T05:37:30.834Z,96756.88
2023-05-01T05:39:58.277Z,96747.09
2023-05-01T05:42:25.833Z,96746.88
2023-05-01T05:44:53.169Z,96741.97
2023-05-01T05:47:20.518Z,96741.72
2023-05-01T05:49:47.529Z,96739.00
2023-05-01T05:52:14.802Z,96749.00
2023-05-01T05:54:41.793Z,96736.84
2023-05-01T05:57:09.090Z,96740.09
2023-05-01T05:59:41.619Z,96751.22
2023-05-01T06:02:09.879Z,96743.47
2023-05-01T06:04:37.130Z,96739.63
2023-05-01T06:07:04.494Z,96741.84
2023-05-01T06:09:31.616Z,96731.22
2023-05-01T06:11:59.040Z,96734.47
2023-05-01T06:14:26.049Z,96735.03
2023-05-01T06:16:53.150Z,96735.81
2023-05-01T06:19:20.190Z,96736.44
2023-05-01T06:21:51.802Z,96734.28
2023-05-01T06:24:19.530Z,96730.72
2023-05-01T06:26:48.761Z,96727.75
2023-05-01T06:29:16.632Z,96719.56
2023-05-01T06:31:44.654Z,96725.19
2023-05-01T06:34:11.864Z,96728.56
2023-05-01T06:36:47.325Z,96713.91
2023-05-01T06:39:14.416Z,96727.66
2023-05-01T06:41:41.459Z,96725.81
2023-05-01T06:44:08.485Z,96730.47
2023-05-01T06:46:35.587Z,96732.53
2023-05-01T06:49:02.665Z,96733.09
2023-05-01T06:51:31.507Z,96730.47
2023-05-01T06:53:58.622Z,96731.88
2023-05-01T06:56:25.750Z,96734.69
2023-05-01T06:58:52.899Z,96733.03
2023-05-01T07:01:20.063Z,96737.16
2023-05-01T07:03:47.236Z,96733.94
2023-05-01T07:06:14.409Z,96727.00
2023-05-01T07:08:41.569Z,96722.84
2023-05-01T07:11:08.705Z,96734.59
2023-05-01T07:13:35.729Z,96731.56
2023-05-01T07:16:03.394Z,96721.91
2023-05-01T07:18:30.990Z,96728.00
2023-05-01T07:20:58.197Z,96715.84
2023-05-01T07:23:26.279Z,96716.22
2023-05-01T07:25:53.516Z,96719.53
2023-05-01T07:28:22.258Z,96708.63
2023-05-01T07:30:49.878Z,96711.09
2023-05-01T07:33:16.999Z,96714.75
2023-05-01T07:35:44.286Z,96708.59
2023-05-01T07:38:11.237Z,96695.44
2023-05-01T07:40:38.673Z,96708.91
2023-05-01T07:43:07.343Z,96714.19
2023-05-01T07:45:35.135Z,96715.09
2023-05-01T07:48:02.135Z,96714.09
2023-05-01T07:50:29.147Z,96725.63
2023-05-01T07:52:56.563Z,96717.25
2023-05-01T07:55:24.245Z,96720.72
2023-05-01T07:57:51.354Z,96726.75
2023-05-01T08:00:18.918Z,96722.44
2023-05-01T08:02:45.974Z,96725.66
2023-05-01T08:05:13.939Z,96728.50
2023-05-01T08:07:45.928Z,96726.09
2023-05-01T08:10:13.108Z,96733.47
2023-05-01T08:12:40.249Z,96725.91
2023-05-01T08:15:07.895Z,96727.47
2023-05-01T08:17:37.667Z,96733.47
2023-05-01T08:20:05.248Z,96729.06
2023-05-01T08:22:35.311Z,96734.03
2023-05-01T08:25:02.395Z,96733.84
2023-05-01T08:27:30.119Z,96729.19
2023-05-01T08:29:57.399Z,96734.22
2023-05-01T08:32:24.707Z,96732.38
2023-05-01T08:34:52.224Z,96735.28
2023-05-01T08:37:19.542Z,96735.31
2023-05-01T08:39:46.490Z,96724.66
2023-05-01T08:42:13.758Z,96724.91
2023-05-01T08:44:40.733Z,96729.06
2023-05-01T08:47:10.520Z,96727.13
2023-05-01T08:49:38.124Z,96742.03
2023-05-01T08:52:05.169Z,96739.75
2023-05-01T08:54:32.526Z,96736.13
2023-05-01T08:57:03.836Z,96737.69
2023-05-01T08:59:31.974Z,96739.91
2023-05-01T09:02:01.634Z,96751.88
2023-05-01T09:04:32.314Z,96742.50
2023-05-01T09:07:01.039Z,96750.13
2023-05-01T09:09:31.193Z,96743.44
2023-05-01T09:12:12.077Z,96746.50
2023-05-01T09:14:39.086Z,96747.41
2023-05-01T09:17:06.188Z,96753.47
2023-05-01T09:19:33.210Z,96756.16
2023-05-01T09:22:00.240Z,96757.19
2023-05-01T09:24:27.342Z,96748.63
2023-05-01T09:26:54.519Z,96754.91
2023-05-01T09:29:38.156Z,96753.41
2023-05-01T09:32:21.655Z,96745.81
2023-05-01T09:34:49.384Z,96750.22
2023-05-01T09:37:32.535Z,96757.81
2023-05-01T09:40:09.982Z,96751.34
2023-05-01T09:42:39.551Z,96755.25
2023-05-01T09:45:13.652Z,96754.88
2023-05-01T09:47:41.935Z,96750.50
2023-05-01T09:50:09.423Z,96755.84
2023-05-01T09:52:36.430Z,96757.03
2023-05-01T09:55:16.556Z,96749.03
2023-05-01T09:57:44.195Z,96750.97
2023-05-01T10:00:12.482Z,96755.97
2023-05-01T10:02:39.944Z,96753.69
2023-05-01T10:05:07.573Z,96750.22
2023-05-01T10:07:34.844Z,96754.59
2023-05-01T10:10:21.533Z,96750.78
2023-05-01T10:12:48.826Z,96745.72
2023-05-01T10:15:24.742Z,96755.72
2023-05-01T10:17:52.921Z,96746.13
2023-05-01T10:20:20.180Z,96749.91
2023-05-01T10:22:47.260Z,96755.94
2023-05-01T10:25:15.097Z,96757.22
2023-05-01T10:27:42.142Z,96762.28
2023-05-01T10:30:10.072Z,96762.72
2023-05-01T10:32:37.880Z,96771.38
2023-05-01T10:35:26.528Z,96771.00
2023-05-01T10:38:04.710Z,96770.75
2023-05-01T10:40:40.999Z,96772.97
2023-05-01T10:43:28.790Z,96780.34
2023-05-01T10:46:21.721Z,96782.25
2023-05-01T10:48:51.817Z,96782.38
2023-05-01T10:51:27.872Z,96771.91
2023-05-01T10:54:16.523Z,96773.06
2023-05-01T10:56:44.040Z,96764.00
2023-05-01T10:59:12.918Z,96775.34
2023-05-01T11:01:41.081Z,96778.88
2023-05-01T11:04:20.716Z,96767.38
2023-05-01T11:07:06.117Z,96771.94
2023-05-01T11:09:46.289Z,96775.59
2023-05-01T11:12:39.700Z,96770.09
2023-05-01T11:15:08.478Z,96766.94
2023-05-01T11:17:41.616Z,96770.72
2023-05-01T11:20:12.049Z,96771.44
2023-05-01T11:22:40.884Z,96768.38
2023-05-01T11:25:34.211Z,96763.91
2023-05-01T11:28:02.165Z,96770.41
2023-05-01T11:30:41.276Z,96770.00
2023-05-01T11:33:10.462Z,96762.47
2023-05-01T11:35:38.304Z,96768.00
2023-05-01T11:38:05.444Z,96760.84
2023-05-01T11:40:34.492Z,96754.06
2023-05-01T11:43:07.611Z,96762.28
2023-05-01T11:45:35.999Z,96758.94
2023-05-01T11:48:04.496Z,96758.91
2023-05-01T11:50:36.590Z,96759.38
2023-05-01T11:53:04.462Z,96761.00
2023-05-01T11:55:32.383Z,96758.84
2023-05-01T11:57:59.524Z,96762.38
2023-05-01T12:00:31.093Z,96760.50
2023-05-01T12:03:02.787Z,96752.56
2023-05-01T12:05:31.108Z,96756.41
2023-05-01T12:08:15.756Z,96754.69
2023-05-01T12:10:43.757Z,96759.88
2023-05-01T12:13:12.230Z,96758.59
2023-05-01T12:15:43.847Z,96753.06
2023-05-01T12:18:12.099Z,96754.38
2023-05-01T12:20:40.157Z,96762.88
2023-05-01T12:23:07.778Z,96762.34
2023-05-01T12:25:35.073Z,96760.03
2023-05-01T12:28:16.946Z,96762.38
2023-05-01T12:30:47.848Z,96752.97
2023-05-01T12:33:21.211Z,96758.44
2023-05-01T12:35:51.519Z,96762.63
2023-05-01T12:38:19.957Z,96755.47
2023-05-01T12:40:56.794Z,96758.06
2023-05-01T12:43:33.964Z,96756.00
2023-05-01T12:46:00.814Z,96761.47
2023-05-01T12:48:28.008Z,96756.84
2023-05-01T12:50:55.941Z,96746.50
2023-05-01T12:53:24.605Z,96751.03
2023-05-01T12:55:53.244Z,96756.25
2023-05-01T12:58:20.378Z,96755.06
2023-05-01T13:00:54.822Z,96761.59
2023-05-01T13:03:26.261Z,96743.72
2023-05-01T13:05:58.310Z,96749.09
2023-05-01T13:08:33.155Z,96747.41
2023-05-01T13:11:01.912Z,96743.88
2023-05-01T13:13:30.946Z,96741.66
2023-05-01T13:16:05.663Z,96742.22
2023-05-01T13:18:33.443Z,96744.94
2023-05-01T13:21:10.157Z,96740.16
2023-05-01T13:23:38.162Z,96740.75
2023-05-01T13:26:07.241Z,96740.84
2023-05-01T13:28:35.786Z,96732.94
2023-05-01T13:31:02.783Z,96735.72
2023-05-01T13:33:31.432Z,96735.25
2023-05-01T13:35:58.557Z,96740.91
2023-05-01T13:38:25.613Z,96737.28
2023-05-01T13:40:52.752Z,96739.44
2023-05-01T13:43:22.395Z,96734.78
2023-05-01T13:45:49.461Z,96736.56
2023-05-01T13:48:17.179Z,96746.38
2023-05-01T13:50:44.222Z,96736.84
2023-05-01T13:53:11.313Z,96737.69
2023-05-01T13:55:41.571Z,96738.69
2023-05-01T13:58:09.000Z,96725.41
2023-05-01T14:00:36.444Z,96727.66
2023-05-01T14:03:03.690Z,96728.72
2023-05-01T14:05:30.902Z,96734.31
2023-05-01T14:07:58.577Z,96737.97
2023-05-01T14:10:27.630Z,96730.59
2023-05-01T14:12:58.910Z,96729.34
2023-05-01T14:15:26.174Z,96736.66
2023-05-01T14:17:53.403Z,96726.75
2023-05-01T14:20:20.445Z,96729.44
2023-05-01T14:22:48.439Z,96736.66
2023-05-01T14:25:31.593Z,96731.97
2023-05-01T14:27:59.642Z,96736.03
2023-05-01T14:30:27.209Z,96743.94
2023-05-01T14:32:54.663Z,96738.91
2023-05-01T14:35:24.870Z,96730.91
2023-05-01T14:37:51.942Z,96732.19
2023-05-01T14:40:20.653Z,96734.81
2023-05-01T14:42:47.895Z,96740.78
2023-05-01T14:45:18.753Z,96735.53
2023-05-01T14:47:49.442Z,96741.66
2023-05-01T14:50:23.345Z,96737.75
2023-05-01T14:52:57.900Z,96739.34
2023-05-01T14:55:34.608Z,96740.94
2023-05-01T14:58:02.104Z,96744.78
2023-05-01T15:00:29.116Z,96746.91
2023-05-01T15:02:59.269Z,96754.41
2023-05-01T15:05:28.331Z,96744.53
2023-05-01T15:07:56.772Z,96744.44
2023-05-01T15:10:26.760Z,96752.97
2023-05-01T15:12:53.765Z,96746.94
2023-05-01T15:15:20.813Z,96742.34
2023-05-01T15:17:47.863Z,96743.13
2023-05-01T15:20:14.832Z,96748.06
2023-05-01T15:22:41.820Z,96743.13
2023-05-01T15:25:10.021Z,96742.91
2023-05-01T15:27:36.998Z,96732.34
2023-05-01T15:30:05.376Z,96741.81
2023-05-01T15:32:32.708Z,96740.31
2023-05-01T15:34:59.946Z,96737.38
2023-05-01T15:37:27.211Z,96743.94
2023-05-01T15:39:54.260Z,96741.28
2023-05-01T15:42:21.387Z,96740.44
2023-05-01T15:44:48.700Z,96740.44
2023-05-01T15:47:16.268Z,96726.75
2023-05-01T15:49:43.459Z,96736.38
2023-05-01T15:52:11.407Z,96739.06
2023-05-01T15:54:38.415Z,96735.53
2023-05-01T15:57:07.702Z,96740.78
2023-05-01T15:59:34.742Z,96736.66
2023-05-01T16:02:02.188Z,96738.97
2023-05-01T16:04:29.277Z,96736.16
2023-05-01T16:06:56.246Z,96737.59
2023-05-01T16:09:25.331Z,96739.84
2023-05-01T16:11:52.401Z,96736.75
2023-05-01T16:14:19.385Z,96743.06
2023-05-01T16:16:46.563Z,96745.50
2023-05-01T16:19:15.021Z,96744.25
2023-05-01T16:21:42.009Z,96754.50
2023-05-01T16:24:09.564Z,96749.47
2023-05-01T16:26:36.700Z,96750.16
2023-05-01T16:29:06.984Z,96747.41
2023-05-01T16:31:41.589Z,96751.06
2023-05-01T16:34:10.944Z,96746.88
2023-05-01T16:36:39.449Z,96751.16
2023-05-01T16:39:08.892Z,96753.66
2023-05-01T16:41:47.067Z,96752.50
2023-05-01T16:44:14.419Z,96752.88
2023-05-01T16:46:42.150Z,96743.91
2023-05-01T16:49:13.692Z,96754.47
2023-05-01T16:51:41.976Z,96756.63
2023-05-01T16:54:09.015Z,96756.53
2023-05-01T16:56:36.151Z,96757.06
2023-05-01T16:59:03.136Z,96760.78
2023-05-01T17:01:30.556Z,96760.03
2023-05-01T17:03:57.613Z,96759.38
2023-05-01T17:06:24.703Z,96762.00
2023-05-01T17:08:51.687Z,96762.78
2023-05-01T17:11:19.095Z,96762.66
2023-05-01T17:13:46.278Z,96768.16
2023-05-01T17:16:13.354Z,96767.19
2023-05-01T17:18:40.513Z,96767.06
2023-05-01T17:21:07.669Z,96766.91
2023-05-01T17:23:34.667Z,96774.91
2023-05-01T17:26:01.661Z,96774.41
2023-05-01T17:28:28.967Z,96775.22
2023-05-01T17:30:56.353Z,96775.84
2023-05-01T17:33:23.378Z,96781.28
2023-05-01T17:35:50.878Z,96776.88
2023-05-01T17:38:17.809Z,96774.66
2023-05-01T17:40:45.059Z,96788.94
2023-05-01T17:43:12.461Z,96782.97
2023-05-01T17:45:39.971Z,96782.91
2023-05-01T17:48:07.089Z,96790.03
2023-05-01T17:50:34.196Z,96789.88
2023-05-01T17:53:01.540Z,96782.34
2023-05-01T17:55:28.939Z,96783.75
2023-05-01T17:57:56.518Z,96783.75
2023-05-01T18:00:24.220Z,96785.31
2023-05-01T18:02:51.767Z,96781.28
2023-05-01T18:05:19.054Z,96787.25
2023-05-01T18:07:46.195Z,96779.28
2023-05-01T18:10:14.173Z,96788.34
2023-05-01T18:12:41.394Z,96784.47
2023-05-01T18:15:09.651Z,96790.19
2023-05-01T18:17:36.762Z,96796.16
2023-05-01T18:20:04.162Z,96789.31
2023-05-01T18:22:33.109Z,96790.91
2023-05-01T18:25:00.939Z,96792.25
2023-05-01T18:27:28.326Z,96795.81
2023-05-01T18:29:55.928Z,96802.88
2023-05-01T18:32:32.886Z,96796.63
2023-05-01T18:35:06.838Z,96805.22
2023-05-01T18:37:34.654Z,96799.59
2023-05-01T18:40:01.903Z,96801.44
2023-05-01T18:42:29.105Z,96811.69
2023-05-01T18:44:56.986Z,96804.34
2023-05-01T18:47:24.135Z,96802.66
2023-05-01T18:49:51.674Z,96806.91
2023-05-01T18:52:18.987Z,96820.88
2023-05-01T18:54:46.396Z,96817.50
2023-05-01T18:57:14.355Z,96821.28
2023-05-01T18:59:43.026Z,96823.66
2023-05-01T19:02:11.515Z,96830.13
2023-05-01T19:04:55.900Z,96825.81
2023-05-01T19:07:25.170Z,96827.41
2023-05-01T19:09:52.194Z,96834.22
2023-05-01T19:12:19.183Z,96831.75
2023-05-01T19:14:46.167Z,96832.88
2023-05-01T19:17:13.333Z,96840.81
2023-05-01T19:19:40.604Z,96838.41
2023-05-01T19:22:08.123Z,96836.22
2023-05-01T19:24:35.334Z,96829.81
2023-05-01T19:27:03.520Z,96839.16
2023-05-01T19:29:31.724Z,96839.72
2023-05-01T19:32:00.448Z,96832.00
2023-05-01T19:34:28.116Z,96842.72
2023-05-01T19:36:57.114Z,96845.72
2023-05-01T19:39:24.319Z,96837.97
2023-05-01T19:41:51.638Z,96844.66
2023-05-01T19:44:18.757Z,96838.63
2023-05-01T19:46:45.838Z,96847.78
2023-05-01T19:49:13.233Z,96844.19
2023-05-01T19:51:41.028Z,96852.31
2023-05-01T19:54:08.035Z,96859.19
2023-05-01T19:56:35.029Z,96858.41
2023-05-01T19:59:02.168Z,96861.09
2023-05-01T20:01:31.395Z,96854.94
2023-05-01T20:03:58.595Z,96861.22
2023-05-01T20:06:26.732Z,96863.38
2023-05-01T20:08:53.968Z,96865.00
2023-05-01T20:11:20.950Z,96871.22
2023-05-01T20:13:48.000Z,96871.78
2023-05-01T20:16:15.026Z,96873.63
2023-05-01T20:18:42.429Z,96870.78
2023-05-01T20:21:09.464Z,96882.19
2023-05-01T20:23:36.480Z,96877.41
2023-05-01T20:26:04.077Z,96876.50
2023-05-01T20:28:31.118Z,96879.38
2023-05-01T20:30:58.142Z,96886.63
2023-05-01T20:33:25.196Z,96889.63
2023-05-01T20:35:53.105Z,96888.34
2023-05-01T20:38:21.662Z,96885.06
2023-05-01T20:40:48.945Z,96895.22
2023-05-01T20:43:15.902Z,96899.75
2023-05-01T20:45:42.931Z,96898.25
2023-05-01T20:48:12.830Z,96898.47
2023-05-01T20:50:42.077Z,96897.06
2023-05-01T20:53:09.467Z,96911.41
2023-05-01T20:55:36.462Z,96911.00
2023-05-01T20:58:03.609Z,96928.13
2023-05-01T21:00:30.656Z,96929.41
2023-05-01T21:02:59.858Z,96916.38
2023-05-01T21:05:27.145Z,96928.34
2023-05-01T21:07:54.176Z,96923.97
2023-05-01T21:10:21.335Z,96928.84
2023-05-01T21:12:48.714Z,96927.34
2023-05-01T21:15:15.719Z,96942.88
2023-05-01T21:17:43.442Z,96940.19
2023-05-01T21:20:31.933Z,96937.38
2023-05-01T21:23:00.195Z,96950.44
2023-05-01T21:25:27.672Z,96948.66
2023-05-01T21:27:55.027Z,96958.78
2023-05-01T21:30:29.215Z,96956.88
2023-05-01T21:32:58.303Z,96953.78
2023-05-01T21:35:26.273Z,96961.84
2023-05-01T21:37:53.286Z,96959.41
2023-05-01T21:40:20.391Z,96961.38
2023-05-01T21:42:47.370Z,96970.31
2023-05-01T21:45:15.084Z,96970.00
2023-05-01T21:47:49.039Z,96972.31
2023-05-01T21:50:16.886Z,96980.53
2023-05-01T21:52:44.290Z,96981.31
2023-05-01T21:55:21.970Z,96967.31
2023-05-01T21:57:51.762Z,96984.91
2023-05-01T22:00:19.693Z,96979.66
2023-05-01T22:02:50.365Z,96979.25
2023-05-01T22:05:22.594Z,96984.28
2023-05-01T22:07:51.490Z,96981.53
2023-05-01T22:10:18.831Z,96984.16
2023-05-01T22:12:46.436Z,96979.97
2023-05-01T22:15:13.954Z,96987.72
2023-05-01T22:17:41.293Z,96985.91
2023-05-01T22:20:11.534Z,96987.84
2023-05-01T22:22:40.532Z,96987.31
2023-05-01T22:25:08.171Z,96989.47
2023-05-01T22:27:35.157Z,96989.19
2023-05-01T22:30:03.289Z,96993.59
2023-05-01T22:32:32.117Z,96991.91
2023-05-01T22:34:59.430Z,96988.31
2023-05-01T22:37:26.468Z,96997.69
2023-05-01T22:39:53.805Z,96986.25
2023-05-01T22:42:21.123Z,97000.47
2023-05-01T22:44:48.340Z,96993.00
2023-05-01T22:47:15.379Z,96991.13
2023-05-01T22:49:42.658Z,97001.06
2023-05-01T22:52:09.648Z,96996.34
2023-05-01T22:54:36.648Z,96991.31
2023-05-01T22:57:03.711Z,97001.81
2023-05-01T22:59:30.734Z,96998.97
2023-05-01T23:01:57.848Z,96991.69
2023-05-01T23:04:25.067Z,96995.78
2023-05-01T23:06:52.163Z,97000.06
2023-05-01T23:09:19.155Z,96996.75
2023-05-01T23:11:46.752Z,96999.81
2023-05-01T23:14:17.355Z,96994.59
2023-05-01T23:16:44.689Z,96999.97
2023-05-01T23:19:23.148Z,96999.41
2023-05-01T23:21:50.949Z,96999.47
2023-05-01T23:24:19.232Z,96997.56
2023-05-01T23:26:46.435Z,96996.34
2023-05-01T23:29:13.962Z,97004.13
2023-05-01T23:31:45.790Z,96999.81
2023-05-01T23:34:18.573Z,97001.44
2023-05-01T23:36:46.258Z,97004.31
2023-05-01T23:39:13.516Z,97000.09
2023-05-01T23:41:40.610Z,96999.31
2023-05-01T23:44:07.806Z,97000.31
2023-05-01T23:46:34.960Z,96992.84
2023-05-01T23:49:02.053Z,96994.03
2023-05-01T23:51:29.036Z,96986.56
2023-05-01T23:53:56.036Z,96996.47
2023-05-01T23:56:23.023Z,96992.56
2023-05-01T23:58:50.129Z,96986.66
